Airfield :







YOU CAN JOIN US ON...

 
LOGIN :

Register | Disclaimer

   EN    FR    IT 

 









Legend :    VFR   Marginal VFR   IFR   Intensive IFR   Very Intensive IFR
Visi :
Ceiling :
>= 8 km
>= 3000ft
5 to 8 km
1000 to 3000 ft
1500m to 5 km
500 to 1000 ft
800 to 1500m
200 to 500 ft
< 800m
< 200 ft
Symbols :   Thunderstorms  Fog  Heavy snow  Heavy precipitations  Wind > 20 kt






- Airport Elevation : 357 ft
- IATA code : YSJ


CYSJ - Saint John

CURRENT METAR :
  • 120600Z 05002KT 15SM SKC M11/M12 A3017 RMK SLP227

EXPIRED METARs :
  • 120500Z 00000KT 15SM SKC M12/M13 A3017 RMK SLP228
  • 120400Z 00000KT 15SM SKC M11/M12 A3019 RMK SLP232

TAF TAF CYSJ
Valid from the 12 at 06:00 until the 12 at 18:00 UTC


120538Z 1206/1218 VRB03KT P6SM FEW020
TEMPO 1206/1208 6SM -SHSN BKN020
FM120800 VRB03KT P6SM FEW040
BECMG 1208/1210 29015G30KT RMK NXT FCST BY 121200Z



MET'MAP, your aeronautical weather chart ! - Copyright ORBIFLY December 2007 - Disclaimer

ORBIFLY MET'MAP TEAM :

Programming & Development : Alexandra Zaïnal
Concept & original design : Baudouin d'Aumeries
Assistance for programming : Marc-Olivier Méhu
Technical & hardware support : Manuel Goepfert

Contact : metmap@orbifly.com




SOURCES & CREDITS :

   NOAA